.
WxDataArchive / Data Records for 2012-01-29
2012-01-28 January 2012 2012-01-30

Data Records for Sunday, 29 January 2012

Time	Temp	Chill	HIndex	Humid	Dewpt	 Wind 	HiWind	WindDir	Rain 	Barom 
-----	----	-----	------	-----	-----	------	------	-------	-----	----- 
00:00	30.6	30.6	30.6	68	21.3	1	4	248	0.00	30.142 
00:05	30.4	30.4	30.4	69	21.5	2	5	248	0.00	30.142 
00:10	30.4	30.4	30.4	69	21.5	1	7	248	0.00	30.142 
00:15	30.4	30.4	30.4	69	21.5	2	6	248	0.00	30.136 
00:20	30.6	30.6	30.6	69	21.7	2	5	248	0.00	30.136 
00:25	30.6	30.6	30.6	69	21.7	2	6	248	0.00	30.136 
00:30	30.6	30.6	30.6	69	21.7	1	4	225	0.00	30.130 
00:35	30.6	30.6	30.6	70	22.0	1	6	225	0.00	30.130 
00:40	30.7	30.7	30.7	69	21.8	1	4	248	0.00	30.130 
00:45	30.7	30.7	30.7	69	21.8	2	4	248	0.00	30.123 
00:50	30.6	30.6	30.6	69	21.7	1	3	248	0.00	30.123 
00:55	30.6	30.6	30.6	69	21.7	2	4	248	0.00	30.123 
01:00	30.6	30.6	30.6	69	21.7	1	5	248	0.00	30.117 
01:05	30.4	30.4	30.4	69	21.5	1	3	248	0.00	30.117 
01:10	30.1	30.1	30.1	70	21.5	1	3	248	0.00	30.117 
01:15	30.1	30.1	30.1	70	21.5	1	5	248	0.00	30.111 
01:20	30.0	30.0	30.0	70	21.4	1	3	248	0.00	30.111 
01:25	30.0	30.0	30.0	71	21.8	1	3	248	0.00	30.111 
01:30	29.8	29.8	29.8	71	21.6	1	3	248	0.00	30.104 
01:35	29.8	29.8	29.8	71	21.6	1	6	225	0.00	30.104 
01:40	29.8	29.8	29.8	71	21.6	1	3	248	0.00	30.104 
01:45	29.8	29.8	29.8	71	21.6	2	7	248	0.00	30.101 
01:50	30.0	30.0	30.0	71	21.8	2	6	248	0.00	30.101 
01:55	30.0	30.0	30.0	70	21.4	1	3	270	0.00	30.101 
02:00	29.8	29.8	29.8	70	21.2	1	5	248	0.00	30.092 
02:05	29.8	29.8	29.8	70	21.2	1	5	248	0.00	30.092 
02:10	29.8	29.8	29.8	70	21.2	2	5	248	0.00	30.092 
02:15	29.8	29.8	29.8	70	21.2	1	4	225	0.00	30.089 
02:20	29.8	29.8	29.8	70	21.2	1	4	248	0.00	30.089 
02:25	29.7	29.7	29.7	70	21.1	1	5	248	0.00	30.089 
02:30	29.7	29.7	29.7	70	21.1	1	4	248	0.00	30.087 
02:35	29.7	29.7	29.7	70	21.1	2	6	248	0.00	30.087 
02:40	29.8	29.8	29.8	69	20.9	1	6	248	0.00	30.087 
02:45	29.8	29.8	29.8	69	20.9	1	5	248	0.00	30.088 
02:50	29.8	29.8	29.8	69	20.9	1	4	225	0.00	30.088 
02:55	29.8	29.8	29.8	69	20.9	1	5	248	0.00	30.088 
03:00	30.0	30.0	30.0	68	20.7	1	4	248	0.00	30.088 
03:05	30.1	30.1	30.1	68	20.8	1	4	248	0.00	30.088 
03:10	30.1	30.1	30.1	68	20.8	1	3	248	0.00	30.088 
03:15	30.1	30.1	30.1	67	20.5	1	5	248	0.00	30.086 
03:20	30.3	30.3	30.3	67	20.7	1	5	248	0.00	30.086 
03:25	30.4	30.4	30.4	66	20.4	1	4	248	0.00	30.086 
03:30	30.4	30.4	30.4	66	20.4	2	4	248	0.00	30.086 
03:35	30.6	30.6	30.6	66	20.6	1	5	270	0.00	30.086 
03:40	30.6	30.6	30.6	66	20.6	2	6	248	0.00	30.086 
03:45	30.6	30.6	30.6	66	20.6	1	4	248	0.00	30.083 
03:50	30.6	30.6	30.6	66	20.6	1	4	248	0.00	30.083 
03:55	30.6	30.6	30.6	66	20.6	1	4	248	0.00	30.083 
04:00	30.6	30.6	30.6	66	20.6	2	5	225	0.00	30.076 
04:05	30.6	30.6	30.6	66	20.6	1	4	248	0.00	30.076 
04:10	30.4	30.4	30.4	66	20.4	1	4	248	0.00	30.076 
04:15	30.4	30.4	30.4	67	20.8	1	5	270	0.00	30.075 
04:20	30.4	30.4	30.4	67	20.8	1	4	248	0.00	30.075 
04:25	30.4	30.4	30.4	67	20.8	1	6	270	0.00	30.075 
04:30	30.4	30.4	30.4	67	20.8	1	3	270	0.00	30.073 
04:35	30.4	30.4	30.4	67	20.8	1	4	248	0.00	30.073 
04:40	30.4	30.4	30.4	67	20.8	1	3	248	0.00	30.073 
04:45	30.6	30.6	30.6	67	21.0	2	4	248	0.00	30.074 
04:50	30.7	30.7	30.7	66	20.7	1	6	248	0.00	30.074 
04:55	30.9	30.9	30.9	66	20.9	2	4	248	0.00	30.074 
05:00	31.0	31.0	31.0	65	20.6	2	6	248	0.00	30.075 
05:05	31.0	31.0	31.0	65	20.6	1	4	248	0.00	30.075 
05:10	31.0	31.0	31.0	65	20.6	1	6	248	0.00	30.075 
05:15	31.2	31.2	31.2	65	20.8	2	6	248	0.00	30.074 
05:20	31.3	31.3	31.3	65	20.9	2	6	225	0.00	30.074 
05:25	31.5	31.5	31.5	64	20.7	2	5	248	0.00	30.074 
05:30	31.6	31.6	31.6	64	20.8	2	5	248	0.00	30.072 
05:35	31.8	31.8	31.8	64	21.0	2	7	248	0.00	30.072 
05:40	31.8	31.8	31.8	64	21.0	2	5	248	0.00	30.072 
05:45	31.8	31.8	31.8	64	21.0	1	5	248	0.00	30.070 
05:50	31.8	31.8	31.8	64	21.0	2	5	248	0.00	30.070 
05:55	31.6	31.6	31.6	65	21.2	1	3	225	0.00	30.070 
06:00	31.3	31.3	31.3	65	20.9	1	4	270	0.00	30.060 
06:05	31.3	31.3	31.3	65	20.9	1	3	248	0.00	30.060 
06:10	31.2	31.2	31.2	66	21.2	1	4	248	0.00	30.060 
06:15	31.0	31.0	31.0	66	21.0	1	4	248	0.00	30.060 
06:20	30.9	30.9	30.9	67	21.3	0	3	248	0.00	30.060 
06:25	30.7	30.7	30.7	67	21.1	1	5	248	0.00	30.060 
06:30	30.7	30.7	30.7	67	21.1	1	4	248	0.00	30.058 
06:35	30.6	30.6	30.6	67	21.0	1	6	248	0.00	30.058 
06:40	30.4	30.4	30.4	68	21.1	1	3	248	0.00	30.058 
06:45	30.3	30.3	30.3	68	21.0	1	4	248	0.00	30.053 
06:50	30.1	30.1	30.1	69	21.2	1	3	248	0.00	30.053 
06:55	30.0	30.0	30.0	69	21.1	1	4	248	0.00	30.053 
07:00	30.0	30.0	30.0	69	21.1	1	5	248	0.00	30.048 
07:05	29.8	29.8	29.8	69	20.9	1	3	248	0.00	30.048 
07:10	29.8	29.8	29.8	70	21.2	1	3	248	0.00	30.048 
07:15	29.7	29.7	29.7	70	21.1	0	2	68	0.00	30.042 
07:20	29.5	29.5	29.5	70	20.9	0	3	68	0.00	30.042 
07:25	29.4	29.4	29.4	71	21.2	1	2	68	0.00	30.042 
07:30	29.3	29.3	29.3	71	21.1	0	3	270	0.00	30.038 
07:35	29.3	29.3	29.3	72	21.4	1	4	248	0.00	30.038 
07:40	29.4	29.4	29.4	72	21.5	1	5	248	0.00	30.038 
07:45	29.4	29.4	29.4	72	21.5	1	3	248	0.00	30.033 
07:50	29.5	29.5	29.5	72	21.6	1	4	248	0.00	30.033 
07:55	29.5	29.5	29.5	71	21.3	1	4	248	0.00	30.033 
08:00	29.7	29.7	29.7	71	21.5	1	3	248	0.00	30.024 
08:05	29.8	29.8	29.8	71	21.6	1	4	248	0.00	30.024 
08:10	30.0	30.0	30.0	71	21.8	1	5	248	0.00	30.024 
08:15	30.0	30.0	30.0	70	21.4	1	5	270	0.00	30.018 
08:20	30.1	30.1	30.1	70	21.5	1	4	292	0.00	30.018 
08:25	30.1	30.1	30.1	70	21.5	1	3	292	0.00	30.018 
08:30	30.3	30.3	30.3	70	21.7	1	7	292	0.00	30.014 
08:35	30.6	30.6	30.6	69	21.7	1	6	248	0.00	30.014 
08:40	30.7	30.7	30.7	69	21.8	1	4	248	0.00	30.014 
08:45	30.9	30.9	30.9	69	21.9	1	5	248	0.00	30.015 
08:50	31.0	31.0	31.0	69	22.0	1	5	248	0.00	30.015 
08:55	31.2	31.2	31.2	68	21.9	2	6	248	0.00	30.015 
09:00	31.3	31.3	31.3	68	22.0	2	6	248	0.00	30.012 
09:05	31.6	31.6	31.6	67	21.9	1	5	225	0.00	30.012 
09:10	31.8	31.8	31.8	67	22.1	1	5	248	0.00	30.012 
09:15	31.9	31.9	31.9	67	22.2	1	5	270	0.00	30.009 
09:20	32.1	32.1	32.1	66	22.0	2	6	248	0.00	30.009 
09:25	32.2	32.2	32.2	66	22.1	2	6	248	0.00	30.009 
09:30	32.4	32.4	32.4	66	22.3	2	5	248	0.00	30.002 
09:35	32.4	32.4	32.4	66	22.3	2	5	248	0.00	30.002 
09:40	32.5	32.5	32.5	66	22.4	1	6	248	0.00	30.002 
09:45	32.5	32.5	32.5	66	22.4	2	7	248	0.00	30.002 
09:50	32.7	32.7	32.7	65	22.3	2	5	248	0.00	30.002 
09:55	32.8	32.8	32.8	65	22.3	2	6	248	0.00	30.002 
10:00	32.9	32.9	32.9	65	22.4	1	5	248	0.00	29.995 
10:05	33.1	33.1	33.1	65	22.6	1	6	225	0.00	29.995 
10:10	33.2	33.2	33.2	65	22.7	1	4	248	0.00	29.995 
10:15	33.5	33.5	33.5	64	22.6	2	6	248	0.00	29.988 
10:20	33.7	33.7	33.7	63	22.5	2	6	248	0.00	29.988 
10:25	33.8	33.8	33.8	62	22.2	2	6	248	0.00	29.988 
10:30	34.0	34.0	34.0	62	22.4	2	5	248	0.00	29.991 
10:35	34.3	34.3	34.3	62	22.7	2	6	248	0.00	29.991 
10:40	34.7	34.7	34.7	61	22.6	3	7	248	0.00	29.991 
10:45	35.0	35.0	35.0	60	22.5	3	7	248	0.00	29.990 
10:50	35.3	31.9	35.3	59	22.4	4	9	248	0.00	29.990 
10:55	35.2	31.8	35.2	60	22.7	4	9	248	0.00	29.990 
11:00	34.9	29.7	34.9	60	22.4	6	16	270	0.00	29.998 
11:05	34.6	30.1	34.6	62	22.9	5	10	270	0.00	29.998 
11:10	33.7	27.5	33.7	67	23.9	7	20	270	0.00	29.998 
11:15	32.7	27.9	32.7	74	25.3	5	11	270	0.00	30.008 
11:20	31.9	28.0	31.9	78	25.8	4	10	270	0.00	30.008 
11:25	31.3	26.3	31.3	82	26.5	5	13	248	0.00	30.008 
11:30	31.0	26.9	31.0	83	26.5	4	9	270	0.00	30.009 
11:35	31.0	31.0	31.0	84	26.7	2	6	248	0.00	30.009 
11:40	31.0	26.9	31.0	85	27.0	4	11	248	0.00	30.009 
11:45	31.0	26.9	31.0	86	27.3	4	10	248	0.00	30.005 
11:50	30.9	26.8	30.9	86	27.2	4	9	248	0.00	30.005 
11:55	30.7	26.6	30.7	87	27.3	4	10	248	0.00	30.005 
12:00	30.6	30.6	30.6	88	27.5	3	13	248	0.00	30.004 
12:05	30.6	30.6	30.6	88	27.5	3	11	248	0.00	30.004 
12:10	30.6	30.6	30.6	88	27.5	3	10	248	0.00	30.004 
12:15	30.6	30.6	30.6	89	27.8	3	7	248	0.00	30.000 
12:20	30.6	30.6	30.6	89	27.8	3	10	248	0.00	30.000 
12:25	30.7	26.6	30.7	89	27.8	4	10	248	0.00	30.000 
12:30	30.9	26.8	30.9	89	28.0	4	12	248	0.00	29.997 
12:35	31.0	26.9	31.0	88	27.9	4	9	248	0.00	29.997 
12:40	31.2	27.2	31.2	87	27.8	4	10	270	0.00	29.997 
12:45	31.2	27.2	31.2	86	27.5	4	10	248	0.00	29.997 
12:50	31.3	31.3	31.3	85	27.3	3	7	248	0.00	29.997 
12:55	31.6	27.6	31.6	84	27.3	4	11	270	0.00	29.997 
13:00	32.1	28.2	32.1	82	27.2	4	8	270	0.00	29.990 
13:05	32.7	28.9	32.7	81	27.5	4	9	248	0.01	29.990 
13:10	33.4	33.4	33.4	80	27.9	3	9	248	0.00	29.990 
13:15	33.5	29.8	33.5	77	27.1	4	11	248	0.00	29.989 
13:20	33.4	29.7	33.4	76	26.7	4	11	248	0.00	29.989 
13:25	33.5	28.8	33.5	74	26.1	5	10	270	0.00	29.989 
13:30	33.7	28.3	33.7	73	26.0	6	15	270	0.00	29.989 
13:35	33.8	29.2	33.8	71	25.4	5	10	248	0.00	29.989 
13:40	33.8	30.2	33.8	71	25.4	4	10	270	0.00	29.989 
13:45	33.4	27.9	33.4	71	25.0	6	12	270	0.00	29.997 
13:50	32.5	26.8	32.5	75	25.5	6	12	270	0.00	29.997 
13:55	30.9	25.8	30.9	82	26.1	5	10	270	0.00	29.997 
14:00	30.0	25.8	30.0	85	26.0	4	7	270	0.00	30.010 
14:05	29.8	29.8	29.8	87	26.4	3	9	270	0.00	30.010 
14:10	30.1	30.1	30.1	88	27.0	3	6	270	0.00	30.010 
14:15	30.6	25.4	30.6	88	27.5	5	10	270	0.00	30.017 
14:20	31.0	26.9	31.0	86	27.3	4	10	270	0.00	30.017 
14:25	31.5	27.5	31.5	85	27.5	4	9	270	0.00	30.017 
14:30	31.9	27.0	31.9	82	27.0	5	11	270	0.00	30.023 
14:35	32.1	27.2	32.1	79	26.3	5	12	270	0.00	30.023 
14:40	32.1	26.3	32.1	76	25.4	6	11	270	0.00	30.023 
14:45	32.2	26.5	32.2	73	24.5	6	11	270	0.00	30.038 
14:50	32.2	27.3	32.2	73	24.5	5	10	270	0.00	30.038 
14:55	32.1	27.2	32.1	73	24.4	5	9	270	0.00	30.038 
15:00	31.6	25.0	31.6	74	24.3	7	13	270	0.00	30.055 
15:05	31.0	25.0	31.0	74	23.7	6	11	270	0.00	30.055 
15:10	30.9	25.8	30.9	75	23.9	5	10	270	0.00	30.055 
15:15	31.0	31.0	31.0	77	24.7	3	6	292	0.00	30.072 
15:20	30.9	26.8	30.9	77	24.6	4	7	270	0.00	30.072 
15:25	30.7	26.6	30.7	76	24.0	4	7	270	0.01	30.072 
15:30	30.7	25.5	30.7	74	23.4	5	9	270	0.00	30.085 
15:35	30.7	26.6	30.7	73	23.1	4	8	270	0.00	30.085 
15:40	30.9	26.8	30.9	72	23.0	4	7	270	0.00	30.085 
15:45	30.9	26.8	30.9	71	22.6	4	10	270	0.00	30.096 
15:50	30.7	26.6	30.7	71	22.4	4	9	292	0.00	30.096 
15:55	30.6	26.5	30.6	71	22.3	4	8	270	0.00	30.096 
16:00	30.4	30.4	30.4	71	22.1	3	7	270	0.00	30.111 
16:05	30.3	26.1	30.3	70	21.7	4	10	270	0.00	30.111 
16:10	30.1	25.9	30.1	68	20.8	4	8	270	0.00	30.111 
16:15	30.0	30.0	30.0	67	20.4	3	9	270	0.00	30.123 
16:20	29.8	25.5	29.8	67	20.2	4	8	270	0.00	30.123 
16:25	29.8	29.8	29.8	68	20.5	3	7	270	0.00	30.123 
16:30	29.5	29.5	29.5	68	20.3	3	6	315	0.00	30.134 
16:35	29.5	29.5	29.5	68	20.3	3	7	270	0.00	30.134 
16:40	29.5	29.5	29.5	69	20.6	2	5	270	0.00	30.134 
16:45	29.7	29.7	29.7	68	20.5	3	9	270	0.00	30.142 
16:50	29.8	25.5	29.8	65	19.5	4	10	292	0.00	30.142 
16:55	29.7	25.4	29.7	63	18.7	4	10	270	0.00	30.142 
17:00	29.4	25.1	29.4	61	17.6	4	9	270	0.00	30.154 
17:05	29.0	24.6	29.0	60	16.9	4	6	270	0.00	30.154 
17:10	28.7	28.7	28.7	61	17.0	3	6	270	0.00	30.154 
17:15	28.5	24.0	28.5	61	16.8	4	7	270	0.00	30.168 
17:20	28.4	28.4	28.4	61	16.7	3	7	248	0.00	30.168 
17:25	28.2	28.2	28.2	61	16.5	3	6	248	0.00	30.168 
17:30	28.1	28.1	28.1	61	16.4	2	6	270	0.00	30.172 
17:35	27.9	27.9	27.9	62	16.6	2	4	270	0.00	30.172 
17:40	27.8	27.8	27.8	62	16.5	2	6	270	0.00	30.172 
17:45	27.6	27.6	27.6	63	16.7	1	4	248	0.00	30.177 
17:50	27.5	27.5	27.5	63	16.6	2	3	248	0.00	30.177 
17:55	27.3	27.3	27.3	64	16.8	1	3	315	0.00	30.177 
18:00	27.2	27.2	27.2	64	16.7	1	2	315	0.00	30.185 
18:05	27.0	27.0	27.0	64	16.5	1	3	315	0.00	30.185 
18:10	26.9	26.9	26.9	65	16.7	1	3	315	0.00	30.185 
18:15	26.7	26.7	26.7	65	16.5	1	3	248	0.00	30.190 
18:20	26.6	26.6	26.6	65	16.4	1	3	248	0.00	30.190 
18:25	26.6	26.6	26.6	65	16.4	1	2	248	0.00	30.190 
18:30	26.4	26.4	26.4	65	16.3	0	2	248	0.00	30.203 
18:35	26.3	26.3	26.3	66	16.5	0	2	248	0.00	30.203 
18:40	26.1	26.1	26.1	66	16.3	1	2	248	0.00	30.203 
18:45	26.1	26.1	26.1	66	16.3	0	2	248	0.00	30.217 
18:50	26.0	26.0	26.0	67	16.6	0	2	248	0.00	30.217 
18:55	26.0	26.0	26.0	67	16.6	0	2	248	0.00	30.217 
19:00	25.8	25.8	25.8	67	16.4	0	1	248	0.00	30.221 
19:05	25.7	25.7	25.7	67	16.3	0	1	248	0.00	30.221 
19:10	25.6	25.6	25.6	67	16.2	0	1	248	0.00	30.221 
19:15	25.6	25.6	25.6	67	16.2	0	1	248	0.00	30.224 
19:20	25.4	25.4	25.4	67	16.0	0	1	248	0.00	30.224 
19:25	25.3	25.3	25.3	68	16.2	0	0	---	0.00	30.224 
19:30	25.1	25.1	25.1	68	16.1	0	1	248	0.00	30.230 
19:35	25.1	25.1	25.1	68	16.1	0	2	248	0.00	30.230 
19:40	25.0	25.0	25.0	68	16.0	0	0	---	0.00	30.230 
19:45	24.8	24.8	24.8	68	15.8	0	1	248	0.00	30.232 
19:50	24.7	24.7	24.7	69	16.0	0	0	---	0.00	30.232 
19:55	24.5	24.5	24.5	69	15.8	0	0	---	0.00	30.232 
20:00	24.2	24.2	24.2	69	15.5	0	1	248	0.00	30.238 
20:05	24.1	24.1	24.1	70	15.8	0	0	---	0.00	30.238 
20:10	23.9	23.9	23.9	70	15.6	0	0	---	0.00	30.238 
20:15	23.8	23.8	23.8	71	15.8	0	1	248	0.00	30.244 
20:20	23.8	23.8	23.8	71	15.8	0	0	---	0.00	30.244 
20:25	23.9	23.9	23.9	72	16.2	0	1	248	0.00	30.244 
20:30	24.1	24.1	24.1	73	16.7	0	1	248	0.00	30.253 
20:35	24.2	24.2	24.2	73	16.8	0	2	248	0.00	30.253 
20:40	24.5	24.5	24.5	73	17.1	1	2	248	0.00	30.253 
20:45	24.7	24.7	24.7	73	17.3	0	1	248	0.00	30.250 
20:50	24.8	24.8	24.8	73	17.4	0	1	248	0.00	30.250 
20:55	24.7	24.7	24.7	72	17.0	0	1	248	0.00	30.250 
21:00	24.7	24.7	24.7	72	17.0	1	3	248	0.00	30.252 
21:05	24.7	24.7	24.7	72	17.0	1	2	270	0.00	30.252 
21:10	24.7	24.7	24.7	72	17.0	0	2	270	0.00	30.252 
21:15	24.7	24.7	24.7	72	17.0	1	2	270	0.00	30.256 
21:20	24.7	24.7	24.7	72	17.0	0	2	270	0.00	30.256 
21:25	24.5	24.5	24.5	73	17.1	1	3	270	0.00	30.256 
21:30	24.5	24.5	24.5	72	16.8	0	3	270	0.00	30.259 
21:35	24.5	24.5	24.5	72	16.8	0	1	270	0.00	30.259 
21:40	24.4	24.4	24.4	72	16.7	0	2	270	0.00	30.259 
21:45	24.2	24.2	24.2	72	16.5	0	2	270	0.00	30.259 
21:50	24.2	24.2	24.2	72	16.5	0	3	270	0.00	30.259 
21:55	24.2	24.2	24.2	72	16.5	0	2	270	0.00	30.259 
22:00	24.2	24.2	24.2	73	16.8	1	3	248	0.00	30.263 
22:05	24.1	24.1	24.1	73	16.7	0	3	248	0.00	30.263 
22:10	24.1	24.1	24.1	73	16.7	1	3	270	0.00	30.263 
22:15	24.1	24.1	24.1	73	16.7	1	2	270	0.00	30.264 
22:20	24.1	24.1	24.1	73	16.7	0	2	270	0.00	30.264 
22:25	24.1	24.1	24.1	73	16.7	0	2	270	0.00	30.264 
22:30	23.9	23.9	23.9	73	16.5	1	3	270	0.00	30.266 
22:35	23.9	23.9	23.9	73	16.5	0	2	270	0.00	30.266 
22:40	23.8	23.8	23.8	73	16.4	0	2	270	0.00	30.266 
22:45	23.8	23.8	23.8	73	16.4	0	1	270	0.00	30.267 
22:50	23.6	23.6	23.6	73	16.2	0	2	270	0.00	30.267 
22:55	23.6	23.6	23.6	74	16.6	1	3	270	0.00	30.267 
23:00	23.6	23.6	23.6	74	16.6	0	3	270	0.00	30.271 
23:05	23.5	23.5	23.5	74	16.5	0	1	270	0.00	30.271 
23:10	23.5	23.5	23.5	74	16.5	0	2	270	0.00	30.271 
23:15	23.3	23.3	23.3	75	16.6	0	1	270	0.00	30.273 
23:20	23.3	23.3	23.3	75	16.6	0	4	248	0.00	30.273 
23:25	23.3	23.3	23.3	75	16.6	0	3	248	0.00	30.273 
23:30	23.3	23.3	23.3	76	16.9	0	1	248	0.00	30.270 
23:35	23.3	23.3	23.3	76	16.9	0	3	248	0.00	30.270 
23:40	23.3	23.3	23.3	76	16.9	0	2	248	0.00	30.270 
23:45	23.2	23.2	23.2	76	16.8	0	1	248	0.00	30.273 
23:50	23.2	23.2	23.2	76	16.8	0	2	248	0.00	30.273 
23:55	23.2	23.2	23.2	76	16.8	0	2	248	0.00	30.273 

CoCoRaHS
IN-AL-39
A2 Web Hosting
Creative Commons License
GoDaddy
search engine by freefind advanced

loaded 2018-11-17 06:06:42 • last modified 2010-11-18 10:43:29
Privacy PolicyDisclaimer
• wx.awcolley.com is powered by PmWiki v.2002016 •
• all content (unless otherwise noted) © 2018 A W Colley